sensor_id;sensor_type;location;lat;lon;timestamp;P1;durP1;ratioP1;P2;durP2;ratioP2
7997;SDS011;4044;49.814;7.828;2022-07-11T00:02:08;2.75;;;2.40;;
7997;SDS011;4044;49.814;7.828;2022-07-11T00:04:34;1.73;;;1.60;;
7997;SDS011;4044;49.814;7.828;2022-07-11T00:07:00;2.70;;;1.92;;
7997;SDS011;4044;49.814;7.828;2022-07-11T00:09:26;2.80;;;2.00;;
7997;SDS011;4044;49.814;7.828;2022-07-11T00:11:52;2.42;;;2.15;;
7997;SDS011;4044;49.814;7.828;2022-07-11T00:14:18;1.80;;;1.70;;
7997;SDS011;4044;49.814;7.828;2022-07-11T00:16:44;2.10;;;1.98;;
7997;SDS011;4044;49.814;7.828;2022-07-11T00:19:09;2.35;;;1.77;;
7997;SDS011;4044;49.814;7.828;2022-07-11T00:21:35;1.90;;;1.73;;
7997;SDS011;4044;49.814;7.828;2022-07-11T00:24:01;2.15;;;2.00;;
7997;SDS011;4044;49.814;7.828;2022-07-11T00:26:31;2.17;;;1.98;;
7997;SDS011;4044;49.814;7.828;2022-07-11T00:28:57;2.90;;;2.00;;
7997;SDS011;4044;49.814;7.828;2022-07-11T00:31:22;3.13;;;1.95;;
7997;SDS011;4044;49.814;7.828;2022-07-11T00:33:48;2.42;;;2.15;;
7997;SDS011;4044;49.814;7.828;2022-07-11T00:36:13;3.08;;;1.98;;
7997;SDS011;4044;49.814;7.828;2022-07-11T00:38:39;2.00;;;1.90;;
7997;SDS011;4044;49.814;7.828;2022-07-11T00:41:05;2.47;;;1.98;;
7997;SDS011;4044;49.814;7.828;2022-07-11T00:43:31;2.15;;;1.95;;
7997;SDS011;4044;49.814;7.828;2022-07-11T00:46:02;2.25;;;2.00;;
7997;SDS011;4044;49.814;7.828;2022-07-11T00:48:32;2.00;;;1.90;;
7997;SDS011;4044;49.814;7.828;2022-07-11T00:50:58;2.13;;;1.92;;
7997;SDS011;4044;49.814;7.828;2022-07-11T00:53:26;2.13;;;2.00;;
7997;SDS011;4044;49.814;7.828;2022-07-11T00:55:52;2.45;;;2.05;;
7997;SDS011;4044;49.814;7.828;2022-07-11T00:58:19;4.60;;;2.25;;
7997;SDS011;4044;49.814;7.828;2022-07-11T01:00:44;4.75;;;2.17;;
7997;SDS011;4044;49.814;7.828;2022-07-11T01:03:11;1.98;;;1.90;;
7997;SDS011;4044;49.814;7.828;2022-07-11T01:05:36;1.90;;;1.80;;
7997;SDS011;4044;49.814;7.828;2022-07-11T01:08:02;2.13;;;2.03;;
7997;SDS011;4044;49.814;7.828;2022-07-11T01:10:28;2.60;;;2.10;;
7997;SDS011;4044;49.814;7.828;2022-07-11T01:12:54;2.85;;;1.83;;
7997;SDS011;4044;49.814;7.828;2022-07-11T01:15:20;2.15;;;2.05;;
7997;SDS011;4044;49.814;7.828;2022-07-11T01:17:45;2.00;;;1.90;;
7997;SDS011;4044;49.814;7.828;2022-07-11T01:20:11;1.90;;;1.80;;
7997;SDS011;4044;49.814;7.828;2022-07-11T01:22:43;3.25;;;2.08;;
7997;SDS011;4044;49.814;7.828;2022-07-11T01:25:14;2.25;;;2.15;;
7997;SDS011;4044;49.814;7.828;2022-07-11T01:27:54;2.13;;;2.03;;
7997;SDS011;4044;49.814;7.828;2022-07-11T01:30:31;3.92;;;1.95;;
7997;SDS011;4044;49.814;7.828;2022-07-11T01:32:57;2.28;;;2.03;;
7997;SDS011;4044;49.814;7.828;2022-07-11T01:35:24;2.38;;;2.13;;
7997;SDS011;4044;49.814;7.828;2022-07-11T01:37:50;2.70;;;1.92;;
7997;SDS011;4044;49.814;7.828;2022-07-11T01:40:16;3.20;;;2.13;;
7997;SDS011;4044;49.814;7.828;2022-07-11T01:42:42;2.05;;;1.80;;
7997;SDS011;4044;49.814;7.828;2022-07-11T01:45:08;3.58;;;2.08;;
7997;SDS011;4044;49.814;7.828;2022-07-11T01:47:35;1.90;;;1.80;;
7997;SDS011;4044;49.814;7.828;2022-07-11T01:50:01;2.22;;;1.80;;
7997;SDS011;4044;49.814;7.828;2022-07-11T01:52:27;2.20;;;2.00;;
7997;SDS011;4044;49.814;7.828;2022-07-11T01:54:53;2.78;;;2.20;;
7997;SDS011;4044;49.814;7.828;2022-07-11T01:57:19;3.70;;;2.30;;
7997;SDS011;4044;49.814;7.828;2022-07-11T01:59:44;2.22;;;2.03;;
7997;SDS011;4044;49.814;7.828;2022-07-11T02:02:10;2.25;;;2.15;;
7997;SDS011;4044;49.814;7.828;2022-07-11T02:04:36;2.33;;;2.13;;
7997;SDS011;4044;49.814;7.828;2022-07-11T02:07:01;2.22;;;2.03;;
7997;SDS011;4044;49.814;7.828;2022-07-11T02:09:27;3.08;;;2.20;;
7997;SDS011;4044;49.814;7.828;2022-07-11T02:11:52;2.42;;;2.20;;
7997;SDS011;4044;49.814;7.828;2022-07-11T02:14:18;1.83;;;1.73;;
7997;SDS011;4044;49.814;7.828;2022-07-11T02:16:43;2.33;;;2.13;;
7997;SDS011;4044;49.814;7.828;2022-07-11T02:19:09;2.28;;;2.08;;
7997;SDS011;4044;49.814;7.828;2022-07-11T02:21:35;2.00;;;1.83;;
7997;SDS011;4044;49.814;7.828;2022-07-11T02:24:02;1.77;;;1.67;;
7997;SDS011;4044;49.814;7.828;2022-07-11T02:26:28;2.67;;;2.35;;
7997;SDS011;4044;49.814;7.828;2022-07-11T02:28:53;1.95;;;1.85;;
7997;SDS011;4044;49.814;7.828;2022-07-11T02:31:19;3.05;;;2.05;;
7997;SDS011;4044;49.814;7.828;2022-07-11T02:33:45;2.03;;;1.92;;
7997;SDS011;4044;49.814;7.828;2022-07-11T02:36:10;2.10;;;2.00;;
7997;SDS011;4044;49.814;7.828;2022-07-11T02:38:36;2.30;;;2.08;;
7997;SDS011;4044;49.814;7.828;2022-07-11T02:41:01;1.83;;;1.73;;
7997;SDS011;4044;49.814;7.828;2022-07-11T02:43:27;2.17;;;1.90;;
7997;SDS011;4044;49.814;7.828;2022-07-11T02:45:53;2.55;;;2.00;;
7997;SDS011;4044;49.814;7.828;2022-07-11T02:48:18;2.80;;;1.95;;
7997;SDS011;4044;49.814;7.828;2022-07-11T02:50:45;2.50;;;2.30;;
7997;SDS011;4044;49.814;7.828;2022-07-11T02:53:10;3.25;;;2.15;;
7997;SDS011;4044;49.814;7.828;2022-07-11T02:55:36;4.68;;;2.13;;
7997;SDS011;4044;49.814;7.828;2022-07-11T02:58:01;2.17;;;2.00;;
7997;SDS011;4044;49.814;7.828;2022-07-11T03:00:27;4.20;;;1.98;;
7997;SDS011;4044;49.814;7.828;2022-07-11T03:02:53;2.70;;;2.05;;
7997;SDS011;4044;49.814;7.828;2022-07-11T03:05:18;3.22;;;1.98;;
7997;SDS011;4044;49.814;7.828;2022-07-11T03:07:44;2.63;;;2.10;;
7997;SDS011;4044;49.814;7.828;2022-07-11T03:10:09;2.05;;;1.83;;
7997;SDS011;4044;49.814;7.828;2022-07-11T03:12:35;2.22;;;2.00;;
7997;SDS011;4044;49.814;7.828;2022-07-11T03:15:01;2.55;;;2.13;;
7997;SDS011;4044;49.814;7.828;2022-07-11T03:17:27;2.00;;;1.90;;
7997;SDS011;4044;49.814;7.828;2022-07-11T03:19:52;1.80;;;1.70;;
7997;SDS011;4044;49.814;7.828;2022-07-11T03:22:18;2.17;;;2.00;;
7997;SDS011;4044;49.814;7.828;2022-07-11T03:24:43;4.63;;;2.10;;
7997;SDS011;4044;49.814;7.828;2022-07-11T03:27:09;2.22;;;2.10;;
7997;SDS011;4044;49.814;7.828;2022-07-11T03:29:35;2.28;;;2.08;;
7997;SDS011;4044;49.814;7.828;2022-07-11T03:32:01;2.55;;;2.35;;
7997;SDS011;4044;49.814;7.828;2022-07-11T03:34:26;3.75;;;2.00;;
7997;SDS011;4044;49.814;7.828;2022-07-11T03:36:52;2.25;;;2.05;;
7997;SDS011;4044;49.814;7.828;2022-07-11T03:39:18;2.20;;;2.10;;
7997;SDS011;4044;49.814;7.828;2022-07-11T03:41:45;4.93;;;2.25;;
7997;SDS011;4044;49.814;7.828;2022-07-11T03:44:11;2.50;;;2.10;;
7997;SDS011;4044;49.814;7.828;2022-07-11T03:46:37;2.60;;;2.00;;
7997;SDS011;4044;49.814;7.828;2022-07-11T03:49:03;2.10;;;1.98;;
7997;SDS011;4044;49.814;7.828;2022-07-11T03:51:29;2.55;;;2.00;;
7997;SDS011;4044;49.814;7.828;2022-07-11T03:53:54;2.22;;;2.13;;
7997;SDS011;4044;49.814;7.828;2022-07-11T03:56:20;3.45;;;2.15;;
7997;SDS011;4044;49.814;7.828;2022-07-11T03:58:47;2.20;;;2.00;;
7997;SDS011;4044;49.814;7.828;2022-07-11T04:01:14;2.10;;;2.00;;
7997;SDS011;4044;49.814;7.828;2022-07-11T04:03:40;2.13;;;1.85;;
7997;SDS011;4044;49.814;7.828;2022-07-11T04:06:05;3.08;;;2.30;;
7997;SDS011;4044;49.814;7.828;2022-07-11T04:08:31;2.50;;;2.25;;
7997;SDS011;4044;49.814;7.828;2022-07-11T04:10:56;2.53;;;2.30;;
7997;SDS011;4044;49.814;7.828;2022-07-11T04:13:22;2.42;;;2.33;;
7997;SDS011;4044;49.814;7.828;2022-07-11T04:15:47;2.53;;;2.35;;
7997;SDS011;4044;49.814;7.828;2022-07-11T04:18:13;2.22;;;2.03;;
7997;SDS011;4044;49.814;7.828;2022-07-11T04:20:38;2.67;;;2.42;;
7997;SDS011;4044;49.814;7.828;2022-07-11T04:23:05;3.17;;;2.70;;
7997;SDS011;4044;49.814;7.828;2022-07-11T04:25:31;2.75;;;2.40;;
7997;SDS011;4044;49.814;7.828;2022-07-11T04:27:58;2.83;;;2.42;;
7997;SDS011;4044;49.814;7.828;2022-07-11T04:30:24;2.53;;;2.30;;
7997;SDS011;4044;49.814;7.828;2022-07-11T04:32:49;2.63;;;2.42;;
7997;SDS011;4044;49.814;7.828;2022-07-11T04:35:15;3.40;;;2.28;;
7997;SDS011;4044;49.814;7.828;2022-07-11T04:37:42;2.40;;;2.30;;
7997;SDS011;4044;49.814;7.828;2022-07-11T04:40:07;3.45;;;2.33;;
7997;SDS011;4044;49.814;7.828;2022-07-11T04:42:33;2.38;;;2.20;;
7997;SDS011;4044;49.814;7.828;2022-07-11T04:44:59;2.80;;;2.30;;
7997;SDS011;4044;49.814;7.828;2022-07-11T04:47:24;2.38;;;2.17;;
7997;SDS011;4044;49.814;7.828;2022-07-11T04:49:50;2.72;;;2.53;;
7997;SDS011;4044;49.814;7.828;2022-07-11T04:52:16;2.90;;;2.67;;
7997;SDS011;4044;49.814;7.828;2022-07-11T04:54:41;2.75;;;2.55;;
7997;SDS011;4044;49.814;7.828;2022-07-11T04:57:07;2.58;;;2.30;;
7997;SDS011;4044;49.814;7.828;2022-07-11T04:59:32;3.85;;;2.58;;
7997;SDS011;4044;49.814;7.828;2022-07-11T05:01:58;3.45;;;2.30;;
7997;SDS011;4044;49.814;7.828;2022-07-11T05:04:23;2.38;;;2.17;;
7997;SDS011;4044;49.814;7.828;2022-07-11T05:06:49;3.35;;;2.53;;
7997;SDS011;4044;49.814;7.828;2022-07-11T05:09:14;2.90;;;2.58;;
7997;SDS011;4044;49.814;7.828;2022-07-11T05:11:40;2.60;;;2.25;;
7997;SDS011;4044;49.814;7.828;2022-07-11T05:14:05;2.30;;;2.10;;
7997;SDS011;4044;49.814;7.828;2022-07-11T05:16:31;2.35;;;2.15;;
7997;SDS011;4044;49.814;7.828;2022-07-11T05:18:57;2.08;;;1.80;;
7997;SDS011;4044;49.814;7.828;2022-07-11T05:21:22;2.80;;;1.98;;
7997;SDS011;4044;49.814;7.828;2022-07-11T05:23:49;6.70;;;2.47;;
7997;SDS011;4044;49.814;7.828;2022-07-11T05:26:14;2.22;;;1.80;;
7997;SDS011;4044;49.814;7.828;2022-07-11T05:28:40;3.03;;;2.30;;
7997;SDS011;4044;49.814;7.828;2022-07-11T05:31:06;4.53;;;2.65;;
7997;SDS011;4044;49.814;7.828;2022-07-11T05:33:32;3.47;;;2.40;;
7997;SDS011;4044;49.814;7.828;2022-07-11T05:35:59;4.05;;;2.72;;
7997;SDS011;4044;49.814;7.828;2022-07-11T05:38:24;3.38;;;2.33;;
7997;SDS011;4044;49.814;7.828;2022-07-11T05:40:50;2.38;;;2.17;;
7997;SDS011;4044;49.814;7.828;2022-07-11T05:43:15;6.25;;;2.50;;
7997;SDS011;4044;49.814;7.828;2022-07-11T05:45:41;5.07;;;2.40;;
7997;SDS011;4044;49.814;7.828;2022-07-11T05:48:07;2.40;;;2.20;;
7997;SDS011;4044;49.814;7.828;2022-07-11T05:50:33;2.55;;;2.20;;
7997;SDS011;4044;49.814;7.828;2022-07-11T05:52:59;3.35;;;2.78;;
7997;SDS011;4044;49.814;7.828;2022-07-11T05:55:27;6.88;;;2.53;;
7997;SDS011;4044;49.814;7.828;2022-07-11T05:57:53;3.55;;;2.90;;
7997;SDS011;4044;49.814;7.828;2022-07-11T06:00:18;3.97;;;2.35;;
7997;SDS011;4044;49.814;7.828;2022-07-11T06:02:44;3.97;;;2.20;;
7997;SDS011;4044;49.814;7.828;2022-07-11T06:05:12;2.45;;;2.25;;
7997;SDS011;4044;49.814;7.828;2022-07-11T06:07:37;1.98;;;1.88;;
7997;SDS011;4044;49.814;7.828;2022-07-11T06:10:22;4.07;;;2.17;;
7997;SDS011;4044;49.814;7.828;2022-07-11T06:12:47;4.60;;;2.60;;
7997;SDS011;4044;49.814;7.828;2022-07-11T06:15:13;7.40;;;2.75;;
7997;SDS011;4044;49.814;7.828;2022-07-11T06:17:38;7.18;;;2.53;;
7997;SDS011;4044;49.814;7.828;2022-07-11T06:20:04;12.10;;;2.83;;
7997;SDS011;4044;49.814;7.828;2022-07-11T06:22:30;5.45;;;2.75;;
7997;SDS011;4044;49.814;7.828;2022-07-11T06:24:57;5.80;;;2.72;;
7997;SDS011;4044;49.814;7.828;2022-07-11T06:27:22;4.93;;;2.10;;
7997;SDS011;4044;49.814;7.828;2022-07-11T06:29:48;3.17;;;2.60;;
7997;SDS011;4044;49.814;7.828;2022-07-11T06:32:14;4.50;;;2.40;;
7997;SDS011;4044;49.814;7.828;2022-07-11T06:34:39;3.55;;;2.10;;
7997;SDS011;4044;49.814;7.828;2022-07-11T06:37:05;3.75;;;2.10;;
7997;SDS011;4044;49.814;7.828;2022-07-11T06:39:30;5.50;;;2.75;;
7997;SDS011;4044;49.814;7.828;2022-07-11T06:41:56;6.82;;;3.03;;
7997;SDS011;4044;49.814;7.828;2022-07-11T06:44:21;5.90;;;2.95;;
7997;SDS011;4044;49.814;7.828;2022-07-11T06:46:47;4.35;;;2.50;;
7997;SDS011;4044;49.814;7.828;2022-07-11T06:49:13;3.97;;;2.50;;
7997;SDS011;4044;49.814;7.828;2022-07-11T06:51:39;4.13;;;2.33;;
7997;SDS011;4044;49.814;7.828;2022-07-11T06:54:04;3.88;;;2.47;;
7997;SDS011;4044;49.814;7.828;2022-07-11T06:56:30;3.58;;;2.42;;
7997;SDS011;4044;49.814;7.828;2022-07-11T06:58:56;3.38;;;2.38;;
7997;SDS011;4044;49.814;7.828;2022-07-11T07:01:21;2.83;;;2.15;;
7997;SDS011;4044;49.814;7.828;2022-07-11T07:03:47;3.13;;;2.20;;
7997;SDS011;4044;49.814;7.828;2022-07-11T07:06:12;4.07;;;2.40;;
7997;SDS011;4044;49.814;7.828;2022-07-11T07:08:38;2.70;;;2.50;;
7997;SDS011;4044;49.814;7.828;2022-07-11T07:11:03;4.32;;;2.67;;
7997;SDS011;4044;49.814;7.828;2022-07-11T07:13:29;3.88;;;2.58;;
7997;SDS011;4044;49.814;7.828;2022-07-11T07:15:55;4.45;;;2.72;;
7997;SDS011;4044;49.814;7.828;2022-07-11T07:18:24;3.17;;;2.88;;
7997;SDS011;4044;49.814;7.828;2022-07-11T07:20:50;3.38;;;2.90;;
7997;SDS011;4044;49.814;7.828;2022-07-11T07:23:17;3.05;;;2.85;;
7997;SDS011;4044;49.814;7.828;2022-07-11T07:25:43;5.55;;;2.95;;
7997;SDS011;4044;49.814;7.828;2022-07-11T07:28:09;3.40;;;3.00;;
7997;SDS011;4044;49.814;7.828;2022-07-11T07:30:34;3.60;;;3.28;;
7997;SDS011;4044;49.814;7.828;2022-07-11T07:33:00;4.30;;;2.95;;
7997;SDS011;4044;49.814;7.828;2022-07-11T07:35:26;3.22;;;2.80;;
7997;SDS011;4044;49.814;7.828;2022-07-11T07:37:52;3.35;;;2.90;;
7997;SDS011;4044;49.814;7.828;2022-07-11T07:40:18;3.63;;;3.10;;
7997;SDS011;4044;49.814;7.828;2022-07-11T07:42:43;3.08;;;2.88;;
7997;SDS011;4044;49.814;7.828;2022-07-11T07:45:09;3.65;;;2.80;;
7997;SDS011;4044;49.814;7.828;2022-07-11T07:47:35;3.50;;;2.83;;
7997;SDS011;4044;49.814;7.828;2022-07-11T07:50:01;3.17;;;2.83;;
7997;SDS011;4044;49.814;7.828;2022-07-11T07:52:27;3.83;;;2.80;;
7997;SDS011;4044;49.814;7.828;2022-07-11T07:54:53;5.45;;;2.72;;
7997;SDS011;4044;49.814;7.828;2022-07-11T07:57:19;5.10;;;3.20;;
7997;SDS011;4044;49.814;7.828;2022-07-11T07:59:44;3.30;;;3.00;;
7997;SDS011;4044;49.814;7.828;2022-07-11T08:02:10;6.10;;;3.28;;
7997;SDS011;4044;49.814;7.828;2022-07-11T08:04:35;6.57;;;3.30;;
7997;SDS011;4044;49.814;7.828;2022-07-11T08:07:01;4.20;;;3.25;;
7997;SDS011;4044;49.814;7.828;2022-07-11T08:09:27;3.88;;;3.50;;
7997;SDS011;4044;49.814;7.828;2022-07-11T08:11:53;5.05;;;3.40;;
7997;SDS011;4044;49.814;7.828;2022-07-11T08:14:19;3.70;;;2.80;;
7997;SDS011;4044;49.814;7.828;2022-07-11T08:16:44;6.50;;;3.70;;
7997;SDS011;4044;49.814;7.828;2022-07-11T08:19:11;4.28;;;3.85;;
7997;SDS011;4044;49.814;7.828;2022-07-11T08:21:36;6.43;;;3.55;;
7997;SDS011;4044;49.814;7.828;2022-07-11T08:24:02;4.18;;;3.20;;
7997;SDS011;4044;49.814;7.828;2022-07-11T08:26:28;7.15;;;3.75;;
7997;SDS011;4044;49.814;7.828;2022-07-11T08:28:54;5.38;;;4.20;;
7997;SDS011;4044;49.814;7.828;2022-07-11T08:31:20;4.60;;;4.20;;
7997;SDS011;4044;49.814;7.828;2022-07-11T08:33:45;5.70;;;4.60;;
7997;SDS011;4044;49.814;7.828;2022-07-11T08:36:11;5.93;;;4.78;;
7997;SDS011;4044;49.814;7.828;2022-07-11T08:38:36;6.80;;;5.18;;
7997;SDS011;4044;49.814;7.828;2022-07-11T08:41:04;5.22;;;4.50;;
7997;SDS011;4044;49.814;7.828;2022-07-11T08:43:30;6.00;;;5.40;;
7997;SDS011;4044;49.814;7.828;2022-07-11T08:45:57;6.22;;;5.63;;
7997;SDS011;4044;49.814;7.828;2022-07-11T08:48:23;7.95;;;6.63;;
7997;SDS011;4044;49.814;7.828;2022-07-11T08:50:50;9.60;;;6.68;;
7997;SDS011;4044;49.814;7.828;2022-07-11T08:53:15;7.40;;;6.55;;
7997;SDS011;4044;49.814;7.828;2022-07-11T08:55:41;9.55;;;6.07;;
7997;SDS011;4044;49.814;7.828;2022-07-11T08:58:07;7.90;;;6.72;;
7997;SDS011;4044;49.814;7.828;2022-07-11T09:00:34;7.93;;;6.47;;
7997;SDS011;4044;49.814;7.828;2022-07-11T09:03:00;8.57;;;6.80;;
7997;SDS011;4044;49.814;7.828;2022-07-11T09:05:28;7.47;;;6.68;;
7997;SDS011;4044;49.814;7.828;2022-07-11T09:07:55;10.70;;;8.68;;
7997;SDS011;4044;49.814;7.828;2022-07-11T09:10:20;9.23;;;8.35;;
7997;SDS011;4044;49.814;7.828;2022-07-11T09:13:05;9.23;;;8.02;;
7997;SDS011;4044;49.814;7.828;2022-07-11T09:15:45;10.85;;;8.55;;
7997;SDS011;4044;49.814;7.828;2022-07-11T09:20:51;10.23;;;9.15;;
7997;SDS011;4044;49.814;7.828;2022-07-11T09:23:45;12.57;;;9.93;;
7997;SDS011;4044;49.814;7.828;2022-07-11T09:26:30;10.02;;;9.02;;
7997;SDS011;4044;49.814;7.828;2022-07-11T09:29:07;10.73;;;9.38;;
7997;SDS011;4044;49.814;7.828;2022-07-11T09:31:34;13.02;;;9.93;;
7997;SDS011;4044;49.814;7.828;2022-07-11T09:34:02;12.48;;;9.77;;
7997;SDS011;4044;49.814;7.828;2022-07-11T09:36:35;11.38;;;9.07;;
7997;SDS011;4044;49.814;7.828;2022-07-11T09:39:02;11.73;;;10.38;;
7997;SDS011;4044;49.814;7.828;2022-07-11T09:41:32;11.90;;;9.57;;
7997;SDS011;4044;49.814;7.828;2022-07-11T09:44:08;11.43;;;9.88;;
7997;SDS011;4044;49.814;7.828;2022-07-11T09:46:35;10.45;;;9.48;;
7997;SDS011;4044;49.814;7.828;2022-07-11T09:49:01;11.63;;;10.13;;
7997;SDS011;4044;49.814;7.828;2022-07-11T09:51:27;14.23;;;10.55;;
7997;SDS011;4044;49.814;7.828;2022-07-11T09:53:54;12.18;;;10.93;;
7997;SDS011;4044;49.814;7.828;2022-07-11T09:56:32;11.50;;;10.40;;
7997;SDS011;4044;49.814;7.828;2022-07-11T09:59:10;12.05;;;10.82;;
7997;SDS011;4044;49.814;7.828;2022-07-11T10:01:38;13.20;;;11.82;;
7997;SDS011;4044;49.814;7.828;2022-07-11T10:04:08;12.82;;;11.63;;
7997;SDS011;4044;49.814;7.828;2022-07-11T10:06:35;13.00;;;11.65;;
7997;SDS011;4044;49.814;7.828;2022-07-11T10:09:01;13.23;;;11.80;;
7997;SDS011;4044;49.814;7.828;2022-07-11T10:11:29;12.85;;;11.55;;
7997;SDS011;4044;49.814;7.828;2022-07-11T10:13:56;15.45;;;12.52;;
7997;SDS011;4044;49.814;7.828;2022-07-11T10:22:29;13.90;;;11.38;;
7997;SDS011;4044;49.814;7.828;2022-07-11T10:30:58;15.63;;;13.30;;
7997;SDS011;4044;49.814;7.828;2022-07-11T10:33:25;14.05;;;12.15;;
7997;SDS011;4044;49.814;7.828;2022-07-11T10:35:52;16.65;;;13.60;;
7997;SDS011;4044;49.814;7.828;2022-07-11T10:38:18;14.57;;;13.05;;
7997;SDS011;4044;49.814;7.828;2022-07-11T10:40:57;15.65;;;12.95;;
7997;SDS011;4044;49.814;7.828;2022-07-11T10:45:59;14.25;;;12.75;;
7997;SDS011;4044;49.814;7.828;2022-07-11T10:48:30;14.20;;;12.80;;
7997;SDS011;4044;49.814;7.828;2022-07-11T10:51:07;15.00;;;13.60;;
7997;SDS011;4044;49.814;7.828;2022-07-11T10:53:49;13.82;;;12.43;;
7997;SDS011;4044;49.814;7.828;2022-07-11T10:59:21;13.27;;;11.73;;
7997;SDS011;4044;49.814;7.828;2022-07-11T11:04:47;12.88;;;11.57;;
7997;SDS011;4044;49.814;7.828;2022-07-11T11:07:28;11.82;;;10.73;;
7997;SDS011;4044;49.814;7.828;2022-07-11T11:09:54;11.85;;;10.48;;
7997;SDS011;4044;49.814;7.828;2022-07-11T11:12:43;12.48;;;11.18;;
7997;SDS011;4044;49.814;7.828;2022-07-11T11:15:31;12.63;;;11.18;;
7997;SDS011;4044;49.814;7.828;2022-07-11T11:17:57;11.77;;;10.70;;
7997;SDS011;4044;49.814;7.828;2022-07-11T11:20:32;11.10;;;10.10;;
7997;SDS011;4044;49.814;7.828;2022-07-11T11:23:07;11.05;;;10.05;;
7997;SDS011;4044;49.814;7.828;2022-07-11T11:25:34;11.73;;;10.52;;
7997;SDS011;4044;49.814;7.828;2022-07-11T11:28:01;11.23;;;10.18;;
7997;SDS011;4044;49.814;7.828;2022-07-11T11:30:31;10.85;;;9.75;;
7997;SDS011;4044;49.814;7.828;2022-07-11T11:32:57;11.43;;;9.90;;
7997;SDS011;4044;49.814;7.828;2022-07-11T11:35:22;12.60;;;10.18;;
7997;SDS011;4044;49.814;7.828;2022-07-11T11:37:48;10.18;;;9.18;;
7997;SDS011;4044;49.814;7.828;2022-07-11T11:40:14;9.10;;;8.35;;
7997;SDS011;4044;49.814;7.828;2022-07-11T11:42:40;7.53;;;7.00;;
7997;SDS011;4044;49.814;7.828;2022-07-11T11:45:06;7.88;;;7.18;;
7997;SDS011;4044;49.814;7.828;2022-07-11T11:47:35;7.60;;;6.90;;
7997;SDS011;4044;49.814;7.828;2022-07-11T11:50:01;10.73;;;7.38;;
7997;SDS011;4044;49.814;7.828;2022-07-11T11:52:27;7.82;;;7.13;;
7997;SDS011;4044;49.814;7.828;2022-07-11T11:54:54;7.95;;;7.20;;
7997;SDS011;4044;49.814;7.828;2022-07-11T11:57:23;7.63;;;6.82;;
7997;SDS011;4044;49.814;7.828;2022-07-11T11:59:51;5.53;;;5.07;;
7997;SDS011;4044;49.814;7.828;2022-07-11T12:02:27;5.72;;;5.22;;
7997;SDS011;4044;49.814;7.828;2022-07-11T12:04:54;11.00;;;5.63;;
7997;SDS011;4044;49.814;7.828;2022-07-11T12:07:21;5.13;;;4.75;;
7997;SDS011;4044;49.814;7.828;2022-07-11T12:09:52;5.32;;;4.80;;
7997;SDS011;4044;49.814;7.828;2022-07-11T12:12:21;5.05;;;4.75;;
7997;SDS011;4044;49.814;7.828;2022-07-11T12:15:32;5.10;;;4.80;;
7997;SDS011;4044;49.814;7.828;2022-07-11T12:18:00;4.85;;;4.55;;
7997;SDS011;4044;49.814;7.828;2022-07-11T12:20:40;4.68;;;4.38;;
7997;SDS011;4044;49.814;7.828;2022-07-11T12:23:15;4.50;;;4.20;;
7997;SDS011;4044;49.814;7.828;2022-07-11T12:25:42;4.53;;;4.22;;
7997;SDS011;4044;49.814;7.828;2022-07-11T12:28:08;4.70;;;4.40;;
7997;SDS011;4044;49.814;7.828;2022-07-11T12:30:34;4.00;;;3.80;;
7997;SDS011;4044;49.814;7.828;2022-07-11T12:33:04;3.90;;;3.60;;
7997;SDS011;4044;49.814;7.828;2022-07-11T12:35:31;5.18;;;4.20;;
7997;SDS011;4044;49.814;7.828;2022-07-11T12:37:57;4.07;;;3.88;;
7997;SDS011;4044;49.814;7.828;2022-07-11T12:40:22;4.13;;;3.83;;
7997;SDS011;4044;49.814;7.828;2022-07-11T12:42:48;5.65;;;4.00;;
7997;SDS011;4044;49.814;7.828;2022-07-11T12:45:13;4.45;;;4.05;;
7997;SDS011;4044;49.814;7.828;2022-07-11T12:47:41;4.88;;;4.40;;
7997;SDS011;4044;49.814;7.828;2022-07-11T12:50:25;4.25;;;3.95;;
7997;SDS011;4044;49.814;7.828;2022-07-11T12:52:56;3.88;;;3.67;;
7997;SDS011;4044;49.814;7.828;2022-07-11T12:55:29;3.95;;;3.72;;
7997;SDS011;4044;49.814;7.828;2022-07-11T12:58:14;4.05;;;3.80;;
7997;SDS011;4044;49.814;7.828;2022-07-11T13:00:43;4.38;;;3.70;;
7997;SDS011;4044;49.814;7.828;2022-07-11T13:03:31;3.70;;;3.50;;
7997;SDS011;4044;49.814;7.828;2022-07-11T13:05:58;4.00;;;3.75;;
7997;SDS011;4044;49.814;7.828;2022-07-11T13:08:25;3.70;;;3.42;;
7997;SDS011;4044;49.814;7.828;2022-07-11T13:11:07;3.70;;;3.40;;
7997;SDS011;4044;49.814;7.828;2022-07-11T13:13:49;3.40;;;3.20;;
7997;SDS011;4044;49.814;7.828;2022-07-11T13:16:16;3.50;;;3.30;;
7997;SDS011;4044;49.814;7.828;2022-07-11T13:18:42;3.40;;;3.10;;
7997;SDS011;4044;49.814;7.828;2022-07-11T13:21:08;3.35;;;3.10;;
7997;SDS011;4044;49.814;7.828;2022-07-11T13:23:34;3.70;;;3.40;;
7997;SDS011;4044;49.814;7.828;2022-07-11T13:26:00;3.40;;;3.20;;
7997;SDS011;4044;49.814;7.828;2022-07-11T13:28:26;4.05;;;2.85;;
7997;SDS011;4044;49.814;7.828;2022-07-11T13:30:52;3.00;;;2.90;;
7997;SDS011;4044;49.814;7.828;2022-07-11T13:33:21;3.15;;;2.95;;
7997;SDS011;4044;49.814;7.828;2022-07-11T13:35:47;3.65;;;3.45;;
7997;SDS011;4044;49.814;7.828;2022-07-11T13:38:14;3.38;;;3.20;;
7997;SDS011;4044;49.814;7.828;2022-07-11T13:40:40;3.10;;;2.90;;
7997;SDS011;4044;49.814;7.828;2022-07-11T13:43:05;3.65;;;3.45;;
7997;SDS011;4044;49.814;7.828;2022-07-11T13:45:31;3.15;;;2.95;;
7997;SDS011;4044;49.814;7.828;2022-07-11T13:47:57;3.10;;;2.90;;
7997;SDS011;4044;49.814;7.828;2022-07-11T13:50:23;3.25;;;3.05;;
7997;SDS011;4044;49.814;7.828;2022-07-11T13:52:49;3.50;;;3.20;;
7997;SDS011;4044;49.814;7.828;2022-07-11T13:55:16;3.50;;;3.20;;
7997;SDS011;4044;49.814;7.828;2022-07-11T13:57:42;3.15;;;2.95;;
7997;SDS011;4044;49.814;7.828;2022-07-11T14:00:08;3.58;;;3.28;;
7997;SDS011;4044;49.814;7.828;2022-07-11T14:02:34;3.00;;;2.80;;
7997;SDS011;4044;49.814;7.828;2022-07-11T14:05:00;3.03;;;2.83;;
7997;SDS011;4044;49.814;7.828;2022-07-11T14:07:25;2.55;;;2.45;;
7997;SDS011;4044;49.814;7.828;2022-07-11T14:09:51;2.85;;;2.75;;
7997;SDS011;4044;49.814;7.828;2022-07-11T14:12:16;2.60;;;2.50;;
7997;SDS011;4044;49.814;7.828;2022-07-11T14:14:42;2.83;;;2.72;;
7997;SDS011;4044;49.814;7.828;2022-07-11T14:17:07;3.05;;;2.85;;
7997;SDS011;4044;49.814;7.828;2022-07-11T14:19:33;2.58;;;2.47;;
7997;SDS011;4044;49.814;7.828;2022-07-11T14:22:02;3.20;;;2.95;;
7997;SDS011;4044;49.814;7.828;2022-07-11T14:24:30;2.92;;;2.72;;
7997;SDS011;4044;49.814;7.828;2022-07-11T14:26:56;2.60;;;2.50;;
7997;SDS011;4044;49.814;7.828;2022-07-11T14:29:22;3.08;;;2.88;;
7997;SDS011;4044;49.814;7.828;2022-07-11T14:31:47;3.38;;;3.08;;
7997;SDS011;4044;49.814;7.828;2022-07-11T14:34:13;2.67;;;2.53;;
7997;SDS011;4044;49.814;7.828;2022-07-11T14:36:38;2.90;;;2.70;;
7997;SDS011;4044;49.814;7.828;2022-07-11T14:39:04;2.92;;;2.72;;
7997;SDS011;4044;49.814;7.828;2022-07-11T14:41:29;2.88;;;2.67;;
7997;SDS011;4044;49.814;7.828;2022-07-11T14:43:56;3.10;;;2.90;;
7997;SDS011;4044;49.814;7.828;2022-07-11T14:46:21;3.17;;;2.75;;
7997;SDS011;4044;49.814;7.828;2022-07-11T14:48:47;2.67;;;2.47;;
7997;SDS011;4044;49.814;7.828;2022-07-11T14:51:12;4.05;;;3.08;;
7997;SDS011;4044;49.814;7.828;2022-07-11T14:53:38;3.30;;;3.10;;
7997;SDS011;4044;49.814;7.828;2022-07-11T14:56:04;3.17;;;2.88;;
7997;SDS011;4044;49.814;7.828;2022-07-11T14:58:29;3.25;;;3.05;;
7997;SDS011;4044;49.814;7.828;2022-07-11T15:00:55;3.38;;;3.17;;
7997;SDS011;4044;49.814;7.828;2022-07-11T15:03:20;3.40;;;3.10;;
7997;SDS011;4044;49.814;7.828;2022-07-11T15:06:08;2.72;;;2.63;;
7997;SDS011;4044;49.814;7.828;2022-07-11T15:08:34;3.30;;;3.03;;
7997;SDS011;4044;49.814;7.828;2022-07-11T15:11:18;3.30;;;3.10;;
7997;SDS011;4044;49.814;7.828;2022-07-11T15:13:47;3.15;;;2.95;;
7997;SDS011;4044;49.814;7.828;2022-07-11T15:16:13;3.55;;;3.25;;
7997;SDS011;4044;49.814;7.828;2022-07-11T15:18:39;3.22;;;3.03;;
7997;SDS011;4044;49.814;7.828;2022-07-11T15:21:04;3.28;;;3.00;;
7997;SDS011;4044;49.814;7.828;2022-07-11T15:23:30;6.47;;;3.25;;
7997;SDS011;4044;49.814;7.828;2022-07-11T15:25:56;3.28;;;3.05;;
7997;SDS011;4044;49.814;7.828;2022-07-11T15:28:21;2.78;;;2.65;;
7997;SDS011;4044;49.814;7.828;2022-07-11T15:30:47;3.10;;;2.90;;
7997;SDS011;4044;49.814;7.828;2022-07-11T15:33:12;4.35;;;2.90;;
7997;SDS011;4044;49.814;7.828;2022-07-11T15:35:38;3.22;;;3.03;;
7997;SDS011;4044;49.814;7.828;2022-07-11T15:38:03;3.53;;;3.22;;